sensor_id;sensor_type;location;lat;lon;timestamp;pressure;altitude;pressure_sealevel;temperature;humidity
11415;BME280;5763;42.714;23.244;2023-02-16T00:01:00;95810.47;;;3.29;61.50
11415;BME280;5763;42.714;23.244;2023-02-16T00:03:28;95813.53;;;3.27;61.19
11415;BME280;5763;42.714;23.244;2023-02-16T00:05:56;95809.25;;;3.23;61.22
11415;BME280;5763;42.714;23.244;2023-02-16T00:08:23;95815.38;;;3.16;60.96
11415;BME280;5763;42.714;23.244;2023-02-16T00:10:50;95818.84;;;3.17;61.37
11415;BME280;5763;42.714;23.244;2023-02-16T00:13:34;95808.47;;;3.22;61.21
11415;BME280;5763;42.714;23.244;2023-02-16T00:16:13;95802.69;;;3.20;61.12
11415;BME280;5763;42.714;23.244;2023-02-16T00:18:42;95810.38;;;3.18;60.98
11415;BME280;5763;42.714;23.244;2023-02-16T00:21:09;95810.38;;;3.18;60.92
11415;BME280;5763;42.714;23.244;2023-02-16T00:23:36;95807.28;;;3.16;60.68
11415;BME280;5763;42.714;23.244;2023-02-16T00:26:03;95806.81;;;3.07;60.77
11415;BME280;5763;42.714;23.244;2023-02-16T00:28:31;95808.00;;;3.13;60.30
11415;BME280;5763;42.714;23.244;2023-02-16T00:30:58;95813.00;;;3.08;60.76
11415;BME280;5763;42.714;23.244;2023-02-16T00:33:24;95810.56;;;2.96;61.31
11415;BME280;5763;42.714;23.244;2023-02-16T00:35:53;95812.03;;;2.83;61.78
11415;BME280;5763;42.714;23.244;2023-02-16T00:38:19;95806.25;;;2.84;61.55
11415;BME280;5763;42.714;23.244;2023-02-16T00:40:46;95805.47;;;2.87;61.50
11415;BME280;5763;42.714;23.244;2023-02-16T00:43:23;95813.22;;;2.89;61.47
11415;BME280;5763;42.714;23.244;2023-02-16T00:45:51;95800.88;;;2.88;61.01
11415;BME280;5763;42.714;23.244;2023-02-16T00:48:18;95812.53;;;2.95;60.51
11415;BME280;5763;42.714;23.244;2023-02-16T00:50:46;95806.28;;;2.88;60.28
11415;BME280;5763;42.714;23.244;2023-02-16T00:53:14;95801.97;;;2.83;60.58
11415;BME280;5763;42.714;23.244;2023-02-16T00:55:41;95809.28;;;2.79;61.05
11415;BME280;5763;42.714;23.244;2023-02-16T00:58:14;95802.78;;;2.87;60.82
11415;BME280;5763;42.714;23.244;2023-02-16T01:00:46;95803.94;;;2.86;60.88
11415;BME280;5763;42.714;23.244;2023-02-16T01:03:15;95810.50;;;2.85;61.21
11415;BME280;5763;42.714;23.244;2023-02-16T01:05:43;95792.25;;;2.72;61.54
11415;BME280;5763;42.714;23.244;2023-02-16T01:08:11;95787.19;;;2.70;61.48
11415;BME280;5763;42.714;23.244;2023-02-16T01:10:58;95797.19;;;2.66;61.86
11415;BME280;5763;42.714;23.244;2023-02-16T01:13:39;95790.97;;;2.62;62.18
11415;BME280;5763;42.714;23.244;2023-02-16T01:16:13;95785.31;;;2.74;62.06
11415;BME280;5763;42.714;23.244;2023-02-16T01:18:40;95794.53;;;2.73;61.59
11415;BME280;5763;42.714;23.244;2023-02-16T01:21:07;95792.19;;;2.68;61.52
11415;BME280;5763;42.714;23.244;2023-02-16T01:23:35;95787.16;;;2.67;61.54
11415;BME280;5763;42.714;23.244;2023-02-16T01:26:04;95787.56;;;2.69;61.40
11415;BME280;5763;42.714;23.244;2023-02-16T01:28:33;95783.59;;;2.56;62.29
11415;BME280;5763;42.714;23.244;2023-02-16T01:31:01;95776.56;;;2.48;62.78
11415;BME280;5763;42.714;23.244;2023-02-16T01:33:28;95775.06;;;2.54;62.87
11415;BME280;5763;42.714;23.244;2023-02-16T01:35:55;95772.72;;;2.49;62.62
11415;BME280;5763;42.714;23.244;2023-02-16T01:38:25;95771.22;;;2.55;61.46
11415;BME280;5763;42.714;23.244;2023-02-16T01:40:59;95776.97;;;2.50;61.82
11415;BME280;5763;42.714;23.244;2023-02-16T01:43:38;95773.56;;;2.56;61.62
11415;BME280;5763;42.714;23.244;2023-02-16T01:46:12;95769.63;;;2.50;61.61
11415;BME280;5763;42.714;23.244;2023-02-16T01:48:40;95780.09;;;2.55;61.85
11415;BME280;5763;42.714;23.244;2023-02-16T01:51:14;95760.38;;;2.51;62.05
11415;BME280;5763;42.714;23.244;2023-02-16T01:53:47;95765.06;;;2.58;61.65
11415;BME280;5763;42.714;23.244;2023-02-16T01:56:23;95756.16;;;2.54;62.06
11415;BME280;5763;42.714;23.244;2023-02-16T01:59:00;95757.31;;;2.53;62.47
11415;BME280;5763;42.714;23.244;2023-02-16T02:01:37;95759.56;;;2.47;62.53
11415;BME280;5763;42.714;23.244;2023-02-16T02:04:18;95760.66;;;2.39;62.32
11415;BME280;5763;42.714;23.244;2023-02-16T02:07:03;95757.97;;;2.39;62.13
11415;BME280;5763;42.714;23.244;2023-02-16T02:09:36;95766.06;;;2.39;61.70
11415;BME280;5763;42.714;23.244;2023-02-16T02:12:11;95763.78;;;2.45;62.30
11415;BME280;5763;42.714;23.244;2023-02-16T02:14:41;95763.03;;;2.44;62.02
11415;BME280;5763;42.714;23.244;2023-02-16T02:17:10;95760.28;;;2.41;61.55
11415;BME280;5763;42.714;23.244;2023-02-16T02:19:45;95758.59;;;2.26;61.69
11415;BME280;5763;42.714;23.244;2023-02-16T02:22:46;95754.81;;;2.34;61.89
11415;BME280;5763;42.714;23.244;2023-02-16T02:28:46;95759.34;;;2.26;61.76
11415;BME280;5763;42.714;23.244;2023-02-16T02:31:22;95753.22;;;2.29;61.74
11415;BME280;5763;42.714;23.244;2023-02-16T02:34:03;95750.03;;;2.17;62.36
11415;BME280;5763;42.714;23.244;2023-02-16T02:36:37;95750.84;;;2.21;62.71
11415;BME280;5763;42.714;23.244;2023-02-16T02:39:18;95737.34;;;2.21;62.97
11415;BME280;5763;42.714;23.244;2023-02-16T02:41:53;95763.16;;;2.18;63.12
11415;BME280;5763;42.714;23.244;2023-02-16T02:44:37;95758.22;;;2.27;62.60
11415;BME280;5763;42.714;23.244;2023-02-16T02:47:05;95754.38;;;2.28;62.63
11415;BME280;5763;42.714;23.244;2023-02-16T02:49:32;95751.22;;;2.23;63.11
11415;BME280;5763;42.714;23.244;2023-02-16T02:51:59;95756.22;;;2.21;63.67
11415;BME280;5763;42.714;23.244;2023-02-16T02:54:28;95752.28;;;2.15;63.48
11415;BME280;5763;42.714;23.244;2023-02-16T02:57:16;95763.91;;;2.19;62.91
11415;BME280;5763;42.714;23.244;2023-02-16T03:00:07;95765.75;;;2.11;63.21
11415;BME280;5763;42.714;23.244;2023-02-16T03:02:55;95764.22;;;2.10;63.50
11415;BME280;5763;42.714;23.244;2023-02-16T03:05:24;95764.97;;;2.07;63.74
11415;BME280;5763;42.714;23.244;2023-02-16T03:07:55;95759.16;;;2.09;63.78
11415;BME280;5763;42.714;23.244;2023-02-16T03:10:41;95761.84;;;2.05;64.09
11415;BME280;5763;42.714;23.244;2023-02-16T03:13:29;95758.78;;;2.07;64.12
11415;BME280;5763;42.714;23.244;2023-02-16T03:16:03;95763.78;;;2.05;64.17
11415;BME280;5763;42.714;23.244;2023-02-16T03:18:33;95749.69;;;1.89;64.50
11415;BME280;5763;42.714;23.244;2023-02-16T03:21:19;95762.25;;;2.07;64.24
11415;BME280;5763;42.714;23.244;2023-02-16T03:24:06;95763.81;;;2.08;64.43
11415;BME280;5763;42.714;23.244;2023-02-16T03:26:53;95764.22;;;2.10;63.87
11415;BME280;5763;42.714;23.244;2023-02-16T03:29:38;95758.78;;;2.07;64.26
11415;BME280;5763;42.714;23.244;2023-02-16T03:32:07;95752.19;;;2.04;63.91
11415;BME280;5763;42.714;23.244;2023-02-16T03:34:35;95749.88;;;2.06;64.06
11415;BME280;5763;42.714;23.244;2023-02-16T03:37:02;95755.75;;;2.12;64.16
11415;BME280;5763;42.714;23.244;2023-02-16T03:39:30;95751.13;;;2.12;64.26
11415;BME280;5763;42.714;23.244;2023-02-16T03:42:18;95744.50;;;2.06;64.29
11415;BME280;5763;42.714;23.244;2023-02-16T03:44:45;95743.03;;;2.12;63.78
11415;BME280;5763;42.714;23.244;2023-02-16T03:47:14;95749.94;;;2.10;63.33
11415;BME280;5763;42.714;23.244;2023-02-16T03:49:40;95759.91;;;2.02;62.83
11415;BME280;5763;42.714;23.244;2023-02-16T03:52:08;95756.44;;;2.05;62.80
11415;BME280;5763;42.714;23.244;2023-02-16T03:54:35;95758.06;;;2.10;62.30
11415;BME280;5763;42.714;23.244;2023-02-16T03:57:01;95757.59;;;2.04;62.62
11415;BME280;5763;42.714;23.244;2023-02-16T03:59:28;95750.97;;;1.98;62.84
11415;BME280;5763;42.714;23.244;2023-02-16T04:01:55;95744.78;;;1.98;62.74
11415;BME280;5763;42.714;23.244;2023-02-16T04:04:23;95740.56;;;2.00;62.25
11415;BME280;5763;42.714;23.244;2023-02-16T04:06:50;95747.53;;;2.01;62.36
11415;BME280;5763;42.714;23.244;2023-02-16T04:09:16;95748.00;;;2.10;61.66
11415;BME280;5763;42.714;23.244;2023-02-16T04:11:43;95743.72;;;2.06;61.80
11415;BME280;5763;42.714;23.244;2023-02-16T04:14:27;95738.69;;;2.04;61.84
11415;BME280;5763;42.714;23.244;2023-02-16T04:16:54;95735.84;;;1.90;61.70
11415;BME280;5763;42.714;23.244;2023-02-16T04:19:22;95742.78;;;1.91;61.70
11415;BME280;5763;42.714;23.244;2023-02-16T04:21:49;95743.53;;;1.88;61.56
11415;BME280;5763;42.714;23.244;2023-02-16T04:24:17;95743.88;;;1.83;61.48
11415;BME280;5763;42.714;23.244;2023-02-16T04:26:44;95746.13;;;1.81;61.34
11415;BME280;5763;42.714;23.244;2023-02-16T04:29:12;95743.31;;;1.71;61.40
11415;BME280;5763;42.714;23.244;2023-02-16T04:31:39;95736.34;;;1.66;61.28
11415;BME280;5763;42.714;23.244;2023-02-16T04:34:05;95737.78;;;1.60;61.40
11415;BME280;5763;42.714;23.244;2023-02-16T04:36:33;95712.22;;;1.47;61.15
11415;BME280;5763;42.714;23.244;2023-02-16T04:39:00;95737.75;;;1.57;61.07
11415;BME280;5763;42.714;23.244;2023-02-16T04:41:27;95733.47;;;1.52;61.52
11415;BME280;5763;42.714;23.244;2023-02-16T04:43:54;95743.06;;;1.50;61.57
11415;BME280;5763;42.714;23.244;2023-02-16T04:46:20;95743.06;;;1.50;61.75
11415;BME280;5763;42.714;23.244;2023-02-16T04:48:48;95747.66;;;1.49;61.70
11415;BME280;5763;42.714;23.244;2023-02-16T04:51:15;95747.97;;;1.44;61.98
11415;BME280;5763;42.714;23.244;2023-02-16T04:53:43;95753.06;;;1.49;61.73
11415;BME280;5763;42.714;23.244;2023-02-16T04:56:10;95753.41;;;1.48;62.41
11415;BME280;5763;42.714;23.244;2023-02-16T04:58:37;95750.78;;;1.51;62.17
11415;BME280;5763;42.714;23.244;2023-02-16T05:01:04;95759.56;;;1.45;62.30
11415;BME280;5763;42.714;23.244;2023-02-16T05:03:31;95749.97;;;1.47;62.24
11415;BME280;5763;42.714;23.244;2023-02-16T05:05:58;95755.69;;;1.42;62.29
11415;BME280;5763;42.714;23.244;2023-02-16T05:08:24;95759.44;;;1.38;63.30
11415;BME280;5763;42.714;23.244;2023-02-16T05:10:53;95760.63;;;1.40;63.26
11415;BME280;5763;42.714;23.244;2023-02-16T05:13:34;95723.31;;;1.13;63.35
11415;BME280;5763;42.714;23.244;2023-02-16T05:16:19;95768.06;;;1.47;63.39
11415;BME280;5763;42.714;23.244;2023-02-16T05:18:46;95765.00;;;1.48;63.51
11415;BME280;5763;42.714;23.244;2023-02-16T05:21:13;95760.38;;;1.49;62.35
11415;BME280;5763;42.714;23.244;2023-02-16T05:23:58;95768.28;;;1.35;61.87
11415;BME280;5763;42.714;23.244;2023-02-16T05:26:27;95772.94;;;1.38;61.68
11415;BME280;5763;42.714;23.244;2023-02-16T05:28:54;95768.56;;;1.26;62.37
11415;BME280;5763;42.714;23.244;2023-02-16T05:31:22;95777.88;;;1.32;62.57
11415;BME280;5763;42.714;23.244;2023-02-16T05:33:49;95755.13;;;1.30;62.36
11415;BME280;5763;42.714;23.244;2023-02-16T05:36:16;95777.59;;;1.41;62.52
11415;BME280;5763;42.714;23.244;2023-02-16T05:38:42;95764.41;;;1.32;62.99
11415;BME280;5763;42.714;23.244;2023-02-16T05:41:09;95769.59;;;1.48;62.41
11415;BME280;5763;42.714;23.244;2023-02-16T05:43:38;95778.78;;;1.43;62.53
11415;BME280;5763;42.714;23.244;2023-02-16T05:46:08;95775.38;;;1.46;62.43
11415;BME280;5763;42.714;23.244;2023-02-16T05:48:34;95781.56;;;1.50;62.59
11415;BME280;5763;42.714;23.244;2023-02-16T05:51:01;95781.56;;;1.50;62.68
11415;BME280;5763;42.714;23.244;2023-02-16T05:53:28;95788.59;;;1.55;62.66
11415;BME280;5763;42.714;23.244;2023-02-16T05:55:55;95788.63;;;1.58;62.11
11415;BME280;5763;42.714;23.244;2023-02-16T05:58:21;95788.59;;;1.55;62.17
11415;BME280;5763;42.714;23.244;2023-02-16T06:00:50;95772.94;;;1.38;62.08
11415;BME280;5763;42.714;23.244;2023-02-16T06:03:16;95793.16;;;1.51;62.50
11415;BME280;5763;42.714;23.244;2023-02-16T06:05:43;95794.84;;;1.62;61.55
11415;BME280;5763;42.714;23.244;2023-02-16T06:08:10;95800.56;;;1.57;61.40
11415;BME280;5763;42.714;23.244;2023-02-16T06:10:36;95798.31;;;1.63;61.49
11415;BME280;5763;42.714;23.244;2023-02-16T06:13:03;95797.63;;;1.69;61.30
11415;BME280;5763;42.714;23.244;2023-02-16T06:15:30;95805.38;;;1.71;61.24
11415;BME280;5763;42.714;23.244;2023-02-16T06:17:58;95815.81;;;1.72;61.57
11415;BME280;5763;42.714;23.244;2023-02-16T06:20:26;95809.66;;;1.75;61.91
11415;BME280;5763;42.714;23.244;2023-02-16T06:22:53;95815.53;;;1.81;61.95
11415;BME280;5763;42.714;23.244;2023-02-16T06:25:20;95803.66;;;1.89;62.24
11415;BME280;5763;42.714;23.244;2023-02-16T06:27:47;95817.66;;;1.98;62.14
11415;BME280;5763;42.714;23.244;2023-02-16T06:30:14;95774.31;;;1.84;62.82
11415;BME280;5763;42.714;23.244;2023-02-16T06:32:41;95811.75;;;2.18;63.00
11415;BME280;5763;42.714;23.244;2023-02-16T06:35:09;95819.63;;;2.34;62.73
11415;BME280;5763;42.714;23.244;2023-02-16T06:37:36;95817.41;;;2.43;62.97
11415;BME280;5763;42.714;23.244;2023-02-16T06:40:03;95812.13;;;2.53;63.05
11415;BME280;5763;42.714;23.244;2023-02-16T06:42:30;95807.59;;;2.64;63.01
11415;BME280;5763;42.714;23.244;2023-02-16T06:44:57;95805.28;;;2.66;63.43
11415;BME280;5763;42.714;23.244;2023-02-16T06:47:24;95818.53;;;2.78;63.29
11415;BME280;5763;42.714;23.244;2023-02-16T06:49:50;95819.84;;;2.95;63.22
11415;BME280;5763;42.714;23.244;2023-02-16T06:52:19;95811.31;;;2.89;63.22
11415;BME280;5763;42.714;23.244;2023-02-16T06:54:45;95814.13;;;3.03;63.17
11415;BME280;5763;42.714;23.244;2023-02-16T06:57:12;95823.34;;;2.99;63.50
11415;BME280;5763;42.714;23.244;2023-02-16T06:59:39;95814.56;;;3.09;63.50
11415;BME280;5763;42.714;23.244;2023-02-16T07:02:05;95815.28;;;3.02;63.54
11415;BME280;5763;42.714;23.244;2023-02-16T07:04:32;95819.94;;;3.05;63.65
11415;BME280;5763;42.714;23.244;2023-02-16T07:06:59;95808.78;;;3.10;63.93
11415;BME280;5763;42.714;23.244;2023-02-16T07:09:27;95800.00;;;3.24;63.43
11415;BME280;5763;42.714;23.244;2023-02-16T07:11:54;95799.66;;;3.29;63.55
11415;BME280;5763;42.714;23.244;2023-02-16T07:14:21;95799.66;;;3.32;63.19
11415;BME280;5763;42.714;23.244;2023-02-16T07:16:48;95801.22;;;3.37;63.91
11415;BME280;5763;42.714;23.244;2023-02-16T07:19:15;95796.97;;;3.36;64.16
11415;BME280;5763;42.714;23.244;2023-02-16T07:21:42;95793.09;;;3.33;64.51
11415;BME280;5763;42.714;23.244;2023-02-16T07:24:09;95790.81;;;3.35;64.52
11415;BME280;5763;42.714;23.244;2023-02-16T07:26:37;95788.97;;;3.53;64.17
11415;BME280;5763;42.714;23.244;2023-02-16T07:29:04;95794.47;;;3.67;64.29
11415;BME280;5763;42.714;23.244;2023-02-16T07:31:31;95783.75;;;3.88;64.07
11415;BME280;5763;42.714;23.244;2023-02-16T07:33:57;95779.19;;;4.06;63.42
11415;BME280;5763;42.714;23.244;2023-02-16T07:36:24;95786.56;;;4.09;63.44
11415;BME280;5763;42.714;23.244;2023-02-16T07:38:51;95791.69;;;4.42;62.33
11415;BME280;5763;42.714;23.244;2023-02-16T07:41:19;95792.50;;;4.60;61.42
11415;BME280;5763;42.714;23.244;2023-02-16T07:43:48;95804.53;;;4.73;61.60
11415;BME280;5763;42.714;23.244;2023-02-16T07:46:14;95789.84;;;5.06;60.41
11415;BME280;5763;42.714;23.244;2023-02-16T07:48:41;95790.25;;;5.11;59.86
11415;BME280;5763;42.714;23.244;2023-02-16T07:51:08;95791.00;;;5.05;60.53
11415;BME280;5763;42.714;23.244;2023-02-16T07:53:35;95791.78;;;5.16;60.23
11415;BME280;5763;42.714;23.244;2023-02-16T07:56:02;95799.53;;;5.31;59.87
11415;BME280;5763;42.714;23.244;2023-02-16T07:58:28;95788.66;;;5.42;59.24
11415;BME280;5763;42.714;23.244;2023-02-16T08:01:05;95797.56;;;5.56;58.54
11415;BME280;5763;42.714;23.244;2023-02-16T08:03:32;95802.19;;;5.59;58.79
11415;BME280;5763;42.714;23.244;2023-02-16T08:06:01;95791.72;;;5.68;58.60
11415;BME280;5763;42.714;23.244;2023-02-16T08:08:28;95801.81;;;5.89;58.20
11415;BME280;5763;42.714;23.244;2023-02-16T08:10:55;95805.28;;;5.96;57.80
11415;BME280;5763;42.714;23.244;2023-02-16T08:13:22;95804.78;;;6.26;57.36
11415;BME280;5763;42.714;23.244;2023-02-16T08:15:49;95800.00;;;6.51;56.81
11415;BME280;5763;42.714;23.244;2023-02-16T08:18:17;95811.22;;;6.63;56.41
11415;BME280;5763;42.714;23.244;2023-02-16T08:20:43;95823.09;;;6.83;55.90
11415;BME280;5763;42.714;23.244;2023-02-16T08:23:10;95809.41;;;7.04;54.91
11415;BME280;5763;42.714;23.244;2023-02-16T08:25:37;95814.53;;;7.39;53.84
11415;BME280;5763;42.714;23.244;2023-02-16T08:28:04;95811.03;;;7.42;53.22
11415;BME280;5763;42.714;23.244;2023-02-16T08:30:32;95817.88;;;8.01;52.09
11415;BME280;5763;42.714;23.244;2023-02-16T08:33:00;95816.84;;;8.25;51.28
11415;BME280;5763;42.714;23.244;2023-02-16T08:35:28;95821.59;;;8.51;50.52
11415;BME280;5763;42.714;23.244;2023-02-16T08:37:57;95816.25;;;8.74;49.93
11415;BME280;5763;42.714;23.244;2023-02-16T08:40:23;95816.50;;;9.10;48.33
11415;BME280;5763;42.714;23.244;2023-02-16T08:42:51;95815.97;;;9.18;48.07
11415;BME280;5763;42.714;23.244;2023-02-16T08:45:18;95811.28;;;9.45;47.47
11415;BME280;5763;42.714;23.244;2023-02-16T08:47:46;95815.53;;;9.69;46.96
11415;BME280;5763;42.714;23.244;2023-02-16T08:50:13;95813.47;;;9.77;46.02
11415;BME280;5763;42.714;23.244;2023-02-16T08:52:42;95808.94;;;9.67;46.42
11415;BME280;5763;42.714;23.244;2023-02-16T08:55:10;95796.97;;;9.84;46.07
11415;BME280;5763;42.714;23.244;2023-02-16T08:57:38;95803.81;;;9.92;45.38
11415;BME280;5763;42.714;23.244;2023-02-16T09:00:06;95797.31;;;10.28;45.42
11415;BME280;5763;42.714;23.244;2023-02-16T09:02:50;95795.06;;;10.43;43.68
11415;BME280;5763;42.714;23.244;2023-02-16T09:05:17;95801.31;;;10.43;43.84
11415;BME280;5763;42.714;23.244;2023-02-16T09:07:45;95795.97;;;10.56;43.42
11415;BME280;5763;42.714;23.244;2023-02-16T09:10:12;95797.53;;;10.92;42.94
11415;BME280;5763;42.714;23.244;2023-02-16T09:12:39;95800.34;;;11.24;42.87
11415;BME280;5763;42.714;23.244;2023-02-16T09:15:08;95789.03;;;11.38;42.20
11415;BME280;5763;42.714;23.244;2023-02-16T09:17:35;95782.47;;;11.68;41.57
11415;BME280;5763;42.714;23.244;2023-02-16T09:20:03;95787.53;;;11.98;40.97
11415;BME280;5763;42.714;23.244;2023-02-16T09:22:30;95777.34;;;11.98;40.93
11415;BME280;5763;42.714;23.244;2023-02-16T09:24:58;95784.94;;;12.07;40.57
11415;BME280;5763;42.714;23.244;2023-02-16T09:27:25;95779.56;;;12.32;39.90
11415;BME280;5763;42.714;23.244;2023-02-16T09:29:52;95782.63;;;12.62;39.14
11415;BME280;5763;42.714;23.244;2023-02-16T09:32:19;95779.34;;;12.67;38.61
11415;BME280;5763;42.714;23.244;2023-02-16T09:34:47;95767.16;;;12.81;38.50
11415;BME280;5763;42.714;23.244;2023-02-16T09:37:15;95772.81;;;13.15;37.89
11415;BME280;5763;42.714;23.244;2023-02-16T09:39:42;95766.09;;;12.91;38.04
11415;BME280;5763;42.714;23.244;2023-02-16T09:42:24;95762.47;;;13.31;37.07
11415;BME280;5763;42.714;23.244;2023-02-16T09:45:04;95765.53;;;13.33;37.25
11415;BME280;5763;42.714;23.244;2023-02-16T09:47:34;95762.75;;;13.71;36.27
11415;BME280;5763;42.714;23.244;2023-02-16T09:50:04;95756.56;;;13.79;35.98
11415;BME280;5763;42.714;23.244;2023-02-16T09:52:35;95755.38;;;13.80;36.62
11415;BME280;5763;42.714;23.244;2023-02-16T09:55:07;95752.47;;;14.18;35.13
11415;BME280;5763;42.714;23.244;2023-02-16T09:57:45;95744.47;;;14.11;35.37
11415;BME280;5763;42.714;23.244;2023-02-16T10:00:21;95743.84;;;13.94;35.66
11415;BME280;5763;42.714;23.244;2023-02-16T10:02:53;95737.13;;;14.08;35.63
11415;BME280;5763;42.714;23.244;2023-02-16T10:05:28;95739.47;;;14.18;35.13
11415;BME280;5763;42.714;23.244;2023-02-16T10:08:02;95728.91;;;13.95;34.76
11415;BME280;5763;42.714;23.244;2023-02-16T10:10:37;95732.84;;;14.28;34.57
11415;BME280;5763;42.714;23.244;2023-02-16T10:13:14;95734.19;;;14.67;34.17
11415;BME280;5763;42.714;23.244;2023-02-16T10:15:43;95724.00;;;14.85;33.93
11415;BME280;5763;42.714;23.244;2023-02-16T10:18:26;95722.06;;;14.95;33.55
11415;BME280;5763;42.714;23.244;2023-02-16T10:20:55;95721.84;;;14.80;33.48
11415;BME280;5763;42.714;23.244;2023-02-16T10:23:36;95721.03;;;15.01;33.47
11415;BME280;5763;42.714;23.244;2023-02-16T10:26:13;95721.00;;;15.32;32.84
11415;BME280;5763;42.714;23.244;2023-02-16T10:28:46;95716.78;;;15.09;32.73
11415;BME280;5763;42.714;23.244;2023-02-16T10:31:19;95711.47;;;14.84;33.43
11415;BME280;5763;42.714;23.244;2023-02-16T10:34:02;95708.91;;;14.90;33.07
11415;BME280;5763;42.714;23.244;2023-02-16T10:36:41;95709.59;;;15.12;32.93
11415;BME280;5763;42.714;23.244;2023-02-16T10:39:19;95712.50;;;15.17;32.82
11415;BME280;5763;42.714;23.244;2023-02-16T10:41:53;95702.81;;;15.43;32.32
11415;BME280;5763;42.714;23.244;2023-02-16T10:44:28;95704.34;;;15.44;32.92
11415;BME280;5763;42.714;23.244;2023-02-16T10:46:58;95689.22;;;15.67;32.20
11415;BME280;5763;42.714;23.244;2023-02-16T10:49:29;95689.69;;;16.10;31.14
11415;BME280;5763;42.714;23.244;2023-02-16T10:51:58;95683.38;;;16.28;31.61
11415;BME280;5763;42.714;23.244;2023-02-16T10:54:28;95680.47;;;16.40;31.18
11415;BME280;5763;42.714;23.244;2023-02-16T10:56:56;95683.50;;;16.60;30.52
11415;BME280;5763;42.714;23.244;2023-02-16T10:59:31;95671.22;;;17.03;30.25
11415;BME280;5763;42.714;23.244;2023-02-16T11:02:00;95668.44;;;17.35;29.88
11415;BME280;5763;42.714;23.244;2023-02-16T11:04:35;95667.38;;;17.42;29.59
11415;BME280;5763;42.714;23.244;2023-02-16T11:07:05;95664.00;;;17.62;29.47
11415;BME280;5763;42.714;23.244;2023-02-16T11:09:33;95657.34;;;17.92;28.76
11415;BME280;5763;42.714;23.244;2023-02-16T11:12:00;95656.03;;;18.16;28.43
11415;BME280;5763;42.714;23.244;2023-02-16T11:14:30;95659.91;;;17.95;28.35
11415;BME280;5763;42.714;23.244;2023-02-16T11:17:06;95653.31;;;17.92;29.01
11415;BME280;5763;42.714;23.244;2023-02-16T11:19:37;95657.44;;;17.97;28.07
11415;BME280;5763;42.714;23.244;2023-02-16T11:22:05;95648.97;;;18.29;28.02
11415;BME280;5763;42.714;23.244;2023-02-16T11:24:34;95641.56;;;18.65;27.77
11415;BME280;5763;42.714;23.244;2023-02-16T11:27:04;95641.19;;;18.72;28.07
11415;BME280;5763;42.714;23.244;2023-02-16T11:29:33;95639.09;;;18.67;27.37
11415;BME280;5763;42.714;23.244;2023-02-16T11:32:07;95627.63;;;18.59;27.60
11415;BME280;5763;42.714;23.244;2023-02-16T11:34:36;95634.91;;;18.57;27.44
11415;BME280;5763;42.714;23.244;2023-02-16T11:37:23;95631.56;;;18.53;27.21
11415;BME280;5763;42.714;23.244;2023-02-16T11:39:52;95626.09;;;18.44;27.50
11415;BME280;5763;42.714;23.244;2023-02-16T11:42:27;95631.84;;;18.69;27.33
11415;BME280;5763;42.714;23.244;2023-02-16T11:44:58;95626.25;;;18.84;27.32
11415;BME280;5763;42.714;23.244;2023-02-16T11:47:29;95627.97;;;18.81;26.84
11415;BME280;5763;42.714;23.244;2023-02-16T11:50:16;95630.88;;;18.58;26.93
11415;BME280;5763;42.714;23.244;2023-02-16T11:52:44;95627.81;;;18.56;27.25
11415;BME280;5763;42.714;23.244;2023-02-16T11:55:21;95618.38;;;18.97;26.35
11415;BME280;5763;42.714;23.244;2023-02-16T11:57:51;95606.47;;;19.45;25.86
11415;BME280;5763;42.714;23.244;2023-02-16T12:00:22;95610.59;;;19.30;26.24
11415;BME280;5763;42.714;23.244;2023-02-16T12:03:08;95610.59;;;19.15;26.02
11415;BME280;5763;42.714;23.244;2023-02-16T12:05:51;95605.59;;;19.54;25.70
11415;BME280;5763;42.714;23.244;2023-02-16T12:08:32;95597.25;;;19.74;25.64
11415;BME280;5763;42.714;23.244;2023-02-16T12:11:10;95593.06;;;19.84;25.61
11415;BME280;5763;42.714;23.244;2023-02-16T12:13:46;95590.78;;;20.02;24.87
11415;BME280;5763;42.714;23.244;2023-02-16T12:16:26;95584.34;;;19.71;25.33
11415;BME280;5763;42.714;23.244;2023-02-16T12:19:06;95585.47;;;20.04;25.24
11415;BME280;5763;42.714;23.244;2023-02-16T12:21:40;95580.41;;;20.03;25.02
11415;BME280;5763;42.714;23.244;2023-02-16T12:24:20;95579.56;;;20.17;24.67
11415;BME280;5763;42.714;23.244;2023-02-16T12:26:55;95567.06;;;20.58;24.49
11415;BME280;5763;42.714;23.244;2023-02-16T12:29:32;95566.66;;;21.07;24.02
11415;BME280;5763;42.714;23.244;2023-02-16T12:32:13;95562.59;;;21.02;24.22
11415;BME280;5763;42.714;23.244;2023-02-16T12:34:53;95560.81;;;21.41;23.58
11415;BME280;5763;42.714;23.244;2023-02-16T12:37:30;95563.06;;;21.37;23.43
11415;BME280;5763;42.714;23.244;2023-02-16T12:40:09;95559.53;;;21.42;23.60
11415;BME280;5763;42.714;23.244;2023-02-16T12:42:49;95555.81;;;21.62;23.16
11415;BME280;5763;42.714;23.244;2023-02-16T12:45:23;95545.16;;;21.55;22.90
11415;BME280;5763;42.714;23.244;2023-02-16T12:47:57;95544.28;;;21.80;22.62
11415;BME280;5763;42.714;23.244;2023-02-16T12:50:27;95535.97;;;22.02;22.31
11415;BME280;5763;42.714;23.244;2023-02-16T12:52:56;95538.66;;;21.69;22.46
11415;BME280;5763;42.714;23.244;2023-02-16T12:55:27;95538.56;;;21.52;23.05
11415;BME280;5763;42.714;23.244;2023-02-16T12:58:02;95542.78;;;21.37;22.89
11415;BME280;5763;42.714;23.244;2023-02-16T13:00:40;95533.06;;;21.16;22.98
11415;BME280;5763;42.714;23.244;2023-02-16T13:03:20;95530.22;;;21.05;23.27
11415;BME280;5763;42.714;23.244;2023-02-16T13:05:56;95526.66;;;21.52;22.56
11415;BME280;5763;42.714;23.244;2023-02-16T13:08:32;95524.88;;;21.49;22.25
11415;BME280;5763;42.714;23.244;2023-02-16T13:11:10;95524.56;;;21.36;22.47
11415;BME280;5763;42.714;23.244;2023-02-16T13:13:39;95526.16;;;21.53;22.48
11415;BME280;5763;42.714;23.244;2023-02-16T13:16:12;95526.59;;;21.41;22.56
11415;BME280;5763;42.714;23.244;2023-02-16T13:18:44;95516.94;;;21.31;22.47
11415;BME280;5763;42.714;23.244;2023-02-16T13:21:22;95524.63;;;21.52;22.51
11415;BME280;5763;42.714;23.244;2023-02-16T13:23:59;95508.94;;;21.55;22.25
11415;BME280;5763;42.714;23.244;2023-02-16T13:26:45;95503.34;;;21.49;22.30
11415;BME280;5763;42.714;23.244;2023-02-16T13:29:33;95507.81;;;21.25;22.38
11415;BME280;5763;42.714;23.244;2023-02-16T13:32:18;95500.13;;;20.67;22.50